Flight Track Log - Related Links

Times and Time Zones

All times are in EST time to prevent confusion due to time zone crossing. See the EJA396 flight status page for this flight to view local times or setup timezone preferences in your user account.

Time Position Orientation Groundspeed Altitude Reporting Facility
EST Latitude Longitude Course Direction KTS MPH feet Rate Location/Type
Tue 08:07:23 PM 32.8667 -117.0333 306° West 210 242 2,600  Level Southern California TRACON
Tue 08:08:23 PM 32.9167 -117.0833 320° Northwest 233 268 4,900 1,884 Climbing Southern California TRACON
Tue 08:10:15 PM 32.9436 -117.2203 283° West 250 288 8,000 1,069 Climbing Los Angeles Center
Tue 08:11:17 PM 32.9556 -117.3111 279° West 269 310 8,000 145 Level Los Angeles Center
Tue 08:12:00 PM 33.0537 -117.3669 306° West  Level Estimated
Tue 08:12:19 PM 32.9728 -117.4219 281° West 281 323 8,300  Level Los Angeles Center
Tue 08:13:21 PM 32.9894 -117.5147 282° West 286 329 9,300 823 Climbing Los Angeles Center
Tue 08:14:23 PM 33.0400 -117.5950 307° West 298 343 10,000 339 Climbing Los Angeles Center
Tue 08:15:25 PM 33.0936 -117.6842 306° West 321 369 10,000  Level Los Angeles Center
Tue 08:16:27 PM 33.1472 -117.7753 305° West 332 382 10,000  Level Los Angeles Center
Tue 08:17:29 PM 33.1858 -117.8758 295° West 333 383 10,000  Level Los Angeles Center
Tue 08:18:31 PM 33.2306 -118.0042 293° West 345 397 10,000  Level Los Angeles Center
Tue 08:19:33 PM 33.2658 -118.1064 292° West 341 392 10,000  Level Los Angeles Center
Tue 08:20:35 PM 33.3044 -118.2133 293° West 346 398 10,000 48 Level Los Angeles Center
Tue 08:21:37 PM 33.3397 -118.3206 292° West 346 398 10,100 48 Climbing Los Angeles Center
Tue 08:22:40 PM 33.3797 -118.4281 294° West 349 402 10,100  Level Los Angeles Center
Tue 08:23:42 PM 33.4414 -118.5150 310° West 345 397 10,100  Level Los Angeles Center
Tue 08:24:44 PM 33.5031 -118.6022 310° West 341 392 10,100  Level Los Angeles Center
Tue 08:25:46 PM 33.5769 -118.7075 310° West 342 394 10,100  Level Los Angeles Center
Tue 08:26:48 PM 33.6386 -118.7947 310° West 341 392 10,100  Level Los Angeles Center
Tue 08:27:50 PM 33.6997 -118.8842 309° West 344 396 10,100  Level Los Angeles Center
Tue 08:28:52 PM 33.7647 -118.9767 310° West 356 410 10,100  Level Los Angeles Center
Tue 08:29:54 PM 33.8528 -119.0214 337° Northwest 354 407 10,100 -48 Level Los Angeles Center
Tue 08:30:56 PM 33.9336 -119.0814 328° Northwest 352 405 10,000 -48 Descending Los Angeles Center
Tue 08:31:58 PM 34.0053 -119.1928 308° West 350 403 10,000 -290 Level Los Angeles Center
Tue 08:33:00 PM 34.0603 -119.2678 312° West 304 350 9,400 -519 Descending Los Angeles Center
Tue 08:33:42 PM 34.0883 -119.3206 303° West 285 328 9,100 -300 Descending Los Angeles Center
Tue 08:34:00 PM 34.1047 -119.3439 310° West 284 327 9,100  Level Los Angeles Center
Tue 08:34:03 PM 34.1036 -119.3439 180° South 279 321 9,100  Level Los Angeles Center
Tue 08:35:01 PM 34.1578 -119.4253 309° West 294 338 9,100  Level Los Angeles Center
Tue 08:35:05 PM 34.1558 -119.4208 118° Southeast 295 339 9,100 -98 Level Los Angeles Center
Tue 08:36:02 PM 34.2069 -119.5003 308° West 298 343 9,000 -97 Descending Los Angeles Center
Tue 08:36:07 PM 34.2042 -119.5008 189° South 297 342 9,000 -1,500 Level Los Angeles Center
Tue 08:37:02 PM 34.2575 -119.5803 309° West 284 327 7,500 -1,355 Descending Los Angeles Center
Tue 08:37:09 PM 34.2542 -119.5750 127° Southeast 291 335 7,600 -2,000 Climbing Los Angeles Center
Tue 08:38:11 PM 34.3125 -119.6633 309° West 283 326 5,200 -2,419 Descending Los Angeles Center
Tue 08:39:13 PM 34.3572 -119.7303 309° West 269 310 2,600 -1,752 Descending Los Angeles Center
Tue 08:40:04 PM 34.3933 -119.7625 324° Northwest 186 214 1,900 -871 Descending Los Angeles Center
Tue 08:40:15 PM 34.3983 -119.7667 325° Northwest 214 246 1,700 -575 Descending Los Angeles Center
Tue 08:41:17 PM 34.4336 -119.7983 323° Northwest 192 221 1,200 -818 Descending Los Angeles Center
Tue 08:42:05 PM 34.4272 -119.8272 255° West 106 122 200 -952 Descending Los Angeles Center
Tue 08:42:20 PM 34.4308 -119.8272 360° North 131 151 200  Level Los Angeles Center
Tue 08:44:00 PM 34.4167 -119.8333 306° West  Level FlightAware Approximate

Login

Don't have an account? Register now (free) for customized features, flight alerts, and more!